Bloomfield Township, Michigan
Current Conditions -  °F | °C
As of 2:35 AM on Saturday 29 Nov 2014 (Local Time) from KVLL Reporting Station
Overcast Overcast  
Wind Chill: 26°   Ceiling: 6500
Heat Index: 32°   Visibility: 10mi
Dew Point: 26°   Wind: 7mph
Humidity: 78%   Direction: 160°SSE
Pressure: 30.05"   Gusts: NA
Location:  42.5858°N, 83.2941°W
Report Text: KVLL 290735Z AUTO 16006KT 10SM SCT031 SCT043 OVC065 00/M03 A3005 RMK AO2 T00001034
Loading
Personal Weather Stations






























Interactive Weather Map New forecast layout! Learn more

10-Day Weather Forecast

Advertisements
Track Severe Weather on mobile